Disclaimer

Please do not use the information listed here in-flight or in-navigation, as they are not provided to us by the airports but are provided by volunteers, so they might be outdated.

Search


Regions


Airport information page

Radio informations:
WROCLAW TWR - 127.225 MHz

Airport informations:
Latitude: 51° 06' 09.66" N
Longitude: 016° 53' 09.01" E
Elevation: 404 feet - 123 meters
Operating hours: Remarks
Operating agency: Civil government, landing fees and diplomatic clearance may be required
Timezone: UTC+1(+2DT) - Last Sunday in March to last Sunday in October
Fuel: Jet A1+, Jet A1 with icing inhibitor.

Runway information:
12/30 - 8202 x 197 feet< - >2500 x 60 meters

Recent METARs:
EPWR 210230Z 09007KT 050V110 9999 FEW010 OVC017 M00/M02 Q1019
EPWR 210300Z 09008KT 060V120 9999 OVC016 M00/M02 Q1019
EPWR 210330Z 08007KT 050V110 9999 SCT013 OVC016 M00/M02 Q1019

Airport on the map: